Princeton Airport

CYDC · Brits-Columbia, Canada

METAR historie CYDC · Princeton Airport

Hieronder zie je METAR's van de afgelopen dagen. Kies een jaar om door oudere METAR's te bladeren, vanaf het jaar 2007.

16 juli 2024

Tijd Code Weer Temp. Zicht Plafond Wind METAR/SPECI
07:00
V
14 °C 25 mi - 360° 360° 0 kt METAR CYDC 161400Z 00000KT 25SM FEW080 FEW250 14/06 A3013 RMK FU1CI1 CI TR SLP188
06:00
V
11 °C 25 mi - 360° 360° 0 kt METAR CYDC 161300Z 00000KT 25SM FEW078 FEW240 11/05 A3012 RMK FU1CI1 SLP188

15 juli 2024

Tijd Code Weer Temp. Zicht Plafond Wind METAR/SPECI
18:00
V
30 °C 25 mi - 280° 280° 9 - 20 kt METAR CYDC 160100Z 28009G20KT 220V020 25SM SKC 30/04 A2996 RMK LAST STFD OBS/NEXT 16 1300Z SLP135 DENSITY ALT 4600FT
17:00
V
32 °C 25 mi - 280° 280° 6 kt METAR CYDC 160000Z 28006KT 250V340 25SM SKC 32/03 A2996 RMK SLP133 DENSITY ALT 4700FT
16:00
V
32 °C 25 mi - 310° 310° 4 kt METAR CYDC 152300Z 31004KT 260V040 25SM SKC 32/03 A2996 RMK HZ SLP132 DENSITY ALT 4800FT
15:00
V
32 °C 25 mi - 300° 300° 6 - 15 kt METAR CYDC 152200Z 30006G15KT 240V040 25SM SKC 32/03 A2997 RMK HZ SLP134 DENSITY ALT 4800FT
14:00
V
32 °C 25 mi - 300° 300° 9 - 17 kt METAR CYDC 152100Z 30009G17KT 230V030 25SM SKC 32/04 A2998 RMK HZ SLP135 DENSITY ALT 4700FT
13:00
V
31 °C 25 mi - 160° 160° 5 kt METAR CYDC 152000Z 16005KT 060V200 25SM FEW080 31/07 A2999 RMK FU1 FU TR SLP137 DENSITY ALT 4600FT
12:00
V
29 °C 25 mi - Var Var 3 kt METAR CYDC 151900Z VRB03KT 25SM FEW075 FEW230 29/07 A3001 RMK FU1CI1 SLP145 DENSITY ALT 4400FT
11:00
V
26 °C 25 mi - 090° 090° 3 kt METAR CYDC 151800Z 09003KT 360V170 25SM FEW071 FEW230 26/06 A3004 RMK FU1CI1 SLP156 DENSITY ALT 4000FT
10:00
V
23 °C 25 mi - Var Var 2 kt METAR CYDC 151700Z VRB02KT 25SM FEW070 FEW230 23/06 A3006 RMK FU1CI1 SLP165 DENSITY ALT 3700FT
09:00
V
18 °C 25 mi - 360° 360° 0 kt METAR CYDC 151600Z 00000KT 25SM FEW180 SCT230 18/04 A3008 RMK AC1CI2 FU SLP173 DENSITY ALT 3100FT
08:00
V
15 °C 25 mi - 360° 360° 0 kt METAR CYDC 151500Z 00000KT 25SM FEW190 SCT230 15/03 A3010 RMK AC1CI3 AC TR FU SLP178 DENSITY ALT 2700FT
07:00
V
12 °C 25 mi - 360° 360° 0 kt METAR CYDC 151400Z 00000KT 25SM SCT130 12/03 A3010 RMK CI3 FU SLP180
06:00
V
9 °C 25 mi - 360° 360° 0 kt METAR CYDC 151300Z 00000KT 25SM FEW180 SCT230 09/01 A3009 RMK AC1CI3 FU SLP180

14 juli 2024

Tijd Code Weer Temp. Zicht Plafond Wind METAR/SPECI
18:00
V
31 °C 25 mi - 280° 280° 8 - 19 kt METAR CYDC 150100Z 28008G19KT 240V320 25SM FEW140 31/00 A2995 RMK AC1 AC TR LAST STFD OBS/NEXT 15 1300Z SLP129 DENSITY ALT 4600FT
17:00
V
32 °C 25 mi - Var Var 10 - 16 kt METAR CYDC 150000Z VRB10G16KT 25SM FEW140 32/01 A2995 RMK AC1 AC TR SLP129 DENSITY ALT 4700FT
16:00
V
32 °C 20 mi - 300° 300° 8 - 17 kt METAR CYDC 142300Z 30008G17KT 260V330 20SM FEW140 32/02 A2996 RMK AC1 AC TR SLP129 DENSITY ALT 4700FT
15:00
V
32 °C 25 mi - 310° 310° 9 - 17 kt METAR CYDC 142200Z 31009G17KT 240V350 25SM FEW140 FEW160 32/01 A2996 RMK AC1AC1 AC TR AC TR SLP130 DENSITY ALT 4700FT
14:00
V
32 °C 25 mi - 310° 310° 8 - 16 kt METAR CYDC 142100Z 31008G16KT 190V340 25SM FEW140 32/00 A2997 RMK AC1 AC TR SLP131 DENSITY ALT 4700FT
13:00
V
31 °C 25 mi - 300° 300° 5 - 16 kt METAR CYDC 142000Z 30005G16KT 220V350 25SM SKC 31/01 A2997 RMK SLP131 DENSITY ALT 4700FT
12:00
V
30 °C 25 mi - 080° 080° 2 kt METAR CYDC 141900Z 08002KT 25SM SKC 30/06 A2998 RMK SLP134 DENSITY ALT 4500FT
11:00
V
28 °C 25 mi - 110° 110° 4 kt METAR CYDC 141800Z 11004KT 040V160 25SM SKC 28/06 A3000 RMK SLP140 DENSITY ALT 4200FT
10:00
V
23 °C 25 mi - 360° 360° 0 kt METAR CYDC 141700Z 00000KT 25SM SKC 23/07 A3002 RMK FU SLP150 DENSITY ALT 3700FT
09:00
V
20 °C 25 mi - 360° 360° 0 kt METAR CYDC 141600Z 00000KT 25SM SKC 20/06 A3005 RMK SLP159 DENSITY ALT 3300FT
08:00
V
17 °C 25 mi - 360° 360° 0 kt METAR CYDC 141500Z 00000KT 25SM SKC 17/05 A3007 RMK SLP164 DENSITY ALT 3000FT
07:00
V
14 °C 25 mi - 360° 360° 0 kt METAR CYDC 141400Z 00000KT 25SM SKC 14/05 A3007 RMK SLP167 DENSITY ALT 2600FT
06:00
V
11 °C 25 mi - 360° 360° 0 kt METAR CYDC 141300Z 00000KT 25SM SKC 11/03 A3006 RMK SLP166
Wijziging doorgeven